Time;durP1;ratioP1;P1;durP2;ratioP2;P2;SDS_P1;SDS_P2;PMS_P1;PMS_P2;Temp;Humidity;BMP_temperature;BMP_pressure;BME280_temperature;BME280_humidity;BME280_pressure;Samples;Min_cycle;Max_cycle;Signal;HPM_P1;HPM_P2
2024/04/17 00:00:43;;;;;;;0.10;0.10;;;9.80;75.00;;;;;;5496371;26;20091;-79
2024/04/17 00:03:10;;;;;;;0.10;0.10;;;9.80;74.90;;;;;;5461329;26;19994;-79
2024/04/17 00:05:35;;;;;;;0.10;0.10;;;9.70;75.00;;;;;;5479124;26;20002;-80
2024/04/17 00:08:01;;;;;;;0.10;0.10;;;9.70;75.10;;;;;;5499901;26;20014;-79
2024/04/17 00:10:27;;;;;;;0.10;0.10;;;9.70;75.10;;;;;;5499997;26;20010;-79
2024/04/17 00:12:52;;;;;;;0.10;0.10;;;9.70;75.30;;;;;;5531846;26;20323;-79
2024/04/17 00:15:18;;;;;;;0.10;0.10;;;9.70;75.30;;;;;;5498784;26;19998;-79
2024/04/17 00:17:44;;;;;;;0.10;0.10;;;9.70;75.30;;;;;;5499054;26;20465;-79
2024/04/17 00:20:10;;;;;;;0.10;0.10;;;9.70;75.20;;;;;;5527806;26;20009;-79
2024/04/17 00:22:35;;;;;;;0.10;0.10;;;9.70;75.40;;;;;;5529715;26;19994;-79
2024/04/17 00:25:01;;;;;;;0.10;0.10;;;9.70;75.50;;;;;;5499723;26;19998;-79
2024/04/17 00:27:27;;;;;;;0.00;0.00;;;9.60;75.40;;;;;;5499687;26;20500;-79
2024/04/17 00:29:52;;;;;;;0.10;0.10;;;9.60;75.40;;;;;;5497673;26;20473;-79
2024/04/17 00:32:18;;;;;;;0.10;0.10;;;9.70;75.50;;;;;;5497702;26;20002;-79
2024/04/17 00:34:43;;;;;;;0.10;0.10;;;9.60;75.40;;;;;;5495686;26;20002;-79
2024/04/17 00:37:09;;;;;;;0.10;0.10;;;9.60;75.30;;;;;;5498403;26;19998;-79
2024/04/17 00:39:36;;;;;;;0.00;0.00;;;9.60;75.50;;;;;;5499321;26;20036;-79
2024/04/17 00:42:02;;;;;;;0.10;0.10;;;9.60;75.60;;;;;;5499315;26;20005;-79
2024/04/17 00:44:28;;;;;;;0.10;0.10;;;9.50;75.40;;;;;;5499154;26;20448;-79
2024/04/17 00:46:54;;;;;;;0.10;0.10;;;9.50;75.50;;;;;;5494135;26;20440;-80
2024/04/17 00:49:20;;;;;;;0.10;0.10;;;9.40;75.80;;;;;;5495112;26;20409;-80
2024/04/17 00:51:47;;;;;;;0.10;0.10;;;9.30;76.00;;;;;;5494802;26;20006;-79
2024/04/17 00:54:13;;;;;;;0.10;0.10;;;9.40;76.00;;;;;;5493075;26;20046;-79
2024/04/17 00:56:40;;;;;;;0.10;0.10;;;9.30;76.10;;;;;;5493101;26;19998;-79
2024/04/17 00:59:06;;;;;;;0.10;0.10;;;9.30;76.00;;;;;;5494261;26;20026;-79
2024/04/17 01:01:32;;;;;;;0.10;0.10;;;9.30;76.00;;;;;;5494509;26;20030;-79
2024/04/17 01:03:58;;;;;;;0.10;0.10;;;9.30;76.10;;;;;;5495149;26;20066;-79
2024/04/17 01:06:23;;;;;;;0.10;0.10;;;9.30;76.30;;;;;;5494703;26;20002;-79
2024/04/17 01:08:49;;;;;;;0.10;0.10;;;9.30;76.20;;;;;;5493830;26;19998;-80
2024/04/17 01:11:14;;;;;;;0.10;0.10;;;9.30;76.50;;;;;;5503611;26;19993;-80
2024/04/17 01:13:40;;;;;;;0.10;0.10;;;9.30;76.40;;;;;;5530550;26;20436;-79
2024/04/17 01:16:06;;;;;;;0.10;0.10;;;9.30;76.30;;;;;;5519649;26;19998;-79
2024/04/17 01:18:33;;;;;;;0.10;0.10;;;9.30;76.30;;;;;;5498414;26;20348;-79
2024/04/17 01:21:00;;;;;;;0.10;0.10;;;9.30;76.20;;;;;;5531051;25;20444;-79
2024/04/17 01:23:26;;;;;;;0.10;0.10;;;9.30;76.40;;;;;;5531468;25;19998;-79
2024/04/17 01:25:52;;;;;;;0.10;0.10;;;9.30;76.20;;;;;;5500336;26;20296;-80
2024/04/17 01:28:17;;;;;;;0.10;0.10;;;9.40;76.40;;;;;;5494740;26;19998;-79
2024/04/17 01:30:43;;;;;;;0.10;0.10;;;9.40;76.20;;;;;;5493477;26;20034;-79
2024/04/17 01:33:08;;;;;;;0.10;0.10;;;9.40;76.40;;;;;;5492514;26;20074;-79
2024/04/17 01:35:34;;;;;;;0.10;0.10;;;9.40;76.10;;;;;;5492454;26;19994;-80
2024/04/17 01:38:00;;;;;;;0.10;0.10;;;9.40;76.20;;;;;;5494473;26;19996;-80
2024/04/17 01:40:25;;;;;;;0.10;0.10;;;9.50;76.10;;;;;;5492169;26;19998;-79
2024/04/17 01:42:51;;;;;;;0.10;0.10;;;9.50;76.10;;;;;;5494725;26;19998;-79
2024/04/17 01:45:16;;;;;;;0.10;0.10;;;9.50;76.00;;;;;;5494244;26;20426;-80
2024/04/17 01:47:42;;;;;;;0.10;0.10;;;9.40;76.30;;;;;;5492934;26;20493;-79
2024/04/17 01:50:08;;;;;;;0.10;0.10;;;9.40;76.10;;;;;;5527490;26;20016;-79
2024/04/17 01:52:34;;;;;;;0.10;0.10;;;9.30;76.50;;;;;;5509264;26;20448;-80
2024/04/17 01:54:59;;;;;;;0.10;0.10;;;9.30;76.50;;;;;;5457659;26;19999;-79
2024/04/17 01:57:25;;;;;;;0.10;0.10;;;9.20;76.30;;;;;;5479247;26;20018;-80
2024/04/17 01:59:51;;;;;;;0.10;0.10;;;9.20;76.50;;;;;;5485656;26;20010;-79
2024/04/17 02:02:16;;;;;;;0.10;0.10;;;9.20;76.60;;;;;;5488790;26;19998;-80
2024/04/17 02:04:42;;;;;;;0.10;0.10;;;9.20;76.50;;;;;;5493174;26;20005;-79
2024/04/17 02:07:07;;;;;;;0.10;0.10;;;9.20;76.30;;;;;;5522213;26;20001;-79
2024/04/17 02:09:33;;;;;;;0.10;0.10;;;9.10;76.60;;;;;;5493413;26;19994;-80
2024/04/17 02:11:59;;;;;;;0.10;0.10;;;9.10;76.20;;;;;;5507904;26;19997;-79
2024/04/17 02:14:25;;;;;;;0.10;0.10;;;9.10;76.50;;;;;;5493906;26;20459;-79
2024/04/17 02:16:51;;;;;;;0.10;0.10;;;9.00;76.70;;;;;;5493698;26;19994;-79
2024/04/17 02:19:16;;;;;;;0.10;0.10;;;9.00;76.60;;;;;;5508700;26;19994;-79
2024/04/17 02:21:42;;;;;;;0.10;0.10;;;9.00;76.50;;;;;;5517826;26;20009;-79
2024/04/17 02:24:08;;;;;;;0.10;0.10;;;9.00;76.60;;;;;;5493093;26;20074;-79
2024/04/17 02:26:33;;;;;;;0.10;0.10;;;9.00;76.60;;;;;;5493483;26;20010;-80
2024/04/17 02:28:59;;;;;;;0.10;0.10;;;9.00;76.60;;;;;;5492054;25;20355;-79
2024/04/17 02:31:24;;;;;;;0.10;0.10;;;9.00;76.50;;;;;;5493220;26;19998;-79
2024/04/17 02:33:50;;;;;;;0.10;0.10;;;9.10;76.30;;;;;;5492406;26;19994;-80
2024/04/17 02:36:16;;;;;;;0.10;0.10;;;9.10;76.50;;;;;;5493237;26;19998;-79
2024/04/17 02:38:41;;;;;;;0.10;0.10;;;9.00;76.40;;;;;;5492366;26;20002;-79
2024/04/17 02:41:07;;;;;;;0.10;0.10;;;9.00;76.40;;;;;;5493059;26;20011;-79
2024/04/17 02:43:32;;;;;;;0.10;0.10;;;9.00;76.30;;;;;;5492753;26;20444;-79
2024/04/17 02:45:58;;;;;;;0.10;0.10;;;9.00;76.40;;;;;;5491074;26;20013;-79
2024/04/17 02:48:24;;;;;;;0.10;0.10;;;9.00;76.30;;;;;;5495303;26;19994;-79
2024/04/17 02:50:49;;;;;;;0.10;0.10;;;9.00;76.20;;;;;;5524560;25;20004;-80
2024/04/17 02:53:15;;;;;;;0.10;0.10;;;9.00;76.20;;;;;;5493252;26;20009;-80
2024/04/17 02:55:40;;;;;;;0.10;0.10;;;8.90;76.20;;;;;;5492875;26;20452;-80
2024/04/17 02:58:06;;;;;;;0.10;0.10;;;8.90;76.30;;;;;;5490753;26;20005;-80
2024/04/17 03:00:32;;;;;;;0.10;0.10;;;8.90;76.30;;;;;;5492770;26;20058;-80
2024/04/17 03:02:58;;;;;;;0.10;0.10;;;8.90;76.40;;;;;;5491062;26;20425;-80
2024/04/17 03:05:27;;;;;;;0.10;0.10;;;8.80;76.30;;;;;;5520929;26;20055;-80
2024/04/17 03:07:53;;;;;;;0.10;0.10;;;8.80;76.40;;;;;;5491309;26;20030;-79
2024/04/17 03:10:18;;;;;;;0.10;0.10;;;8.80;76.30;;;;;;5490629;26;20322;-80
2024/04/17 03:12:44;;;;;;;0.10;0.10;;;8.70;76.60;;;;;;5524568;26;20004;-80
2024/04/17 03:15:12;;;;;;;0.10;0.10;;;8.70;76.50;;;;;;5529207;26;20001;-80
2024/04/17 03:17:37;;;;;;;0.10;0.10;;;8.70;76.40;;;;;;5527877;26;19997;-79
2024/04/17 03:20:03;;;;;;;0.10;0.10;;;8.70;76.50;;;;;;5503319;26;20013;-80
2024/04/17 03:22:29;;;;;;;0.10;0.10;;;8.70;76.50;;;;;;5489579;26;20030;-79
2024/04/17 03:24:55;;;;;;;0.10;0.10;;;8.70;76.40;;;;;;5490836;26;19998;-79
2024/04/17 03:27:20;;;;;;;0.10;0.10;;;8.80;76.50;;;;;;5492790;26;20073;-79
2024/04/17 03:29:46;;;;;;;0.10;0.10;;;8.80;76.30;;;;;;5492618;26;20885;-79
2024/04/17 03:32:12;;;;;;;0.10;0.10;;;8.80;76.30;;;;;;5491820;26;20009;-79
2024/04/17 03:34:37;;;;;;;0.10;0.10;;;8.80;76.30;;;;;;5492034;26;20047;-79
2024/04/17 03:37:03;;;;;;;0.10;0.10;;;8.90;76.40;;;;;;5492313;26;20086;-80
2024/04/17 03:39:29;;;;;;;0.10;0.10;;;8.90;76.30;;;;;;5489803;26;20017;-79
2024/04/17 03:41:54;;;;;;;0.10;0.10;;;8.90;76.20;;;;;;5491701;26;20095;-79
2024/04/17 03:44:20;;;;;;;0.10;0.10;;;8.90;76.20;;;;;;5492125;26;19998;-80
2024/04/17 03:46:46;;;;;;;0.10;0.10;;;8.90;76.30;;;;;;5491996;26;20363;-79
2024/04/17 03:49:12;;;;;;;0.10;0.10;;;8.80;76.20;;;;;;5502471;26;19997;-79
2024/04/17 03:51:37;;;;;;;0.00;0.00;;;8.80;76.30;;;;;;5528821;26;20463;-79
2024/04/17 03:54:03;;;;;;;0.10;0.10;;;8.70;76.50;;;;;;5497112;26;19994;-79
2024/04/17 03:56:29;;;;;;;0.10;0.10;;;8.70;76.50;;;;;;5519322;26;20447;-80
2024/04/17 03:58:54;;;;;;;0.10;0.10;;;8.70;76.60;;;;;;5491496;26;19999;-80
2024/04/17 04:01:20;;;;;;;0.10;0.10;;;8.70;76.70;;;;;;5491731;26;19997;-80
2024/04/17 04:03:45;;;;;;;0.10;0.10;;;8.60;76.80;;;;;;5490664;26;20014;-79
2024/04/17 04:06:11;;;;;;;0.10;0.10;;;8.60;76.70;;;;;;5491888;26;20014;-80
2024/04/17 04:08:37;;;;;;;0.10;0.10;;;8.70;76.80;;;;;;5492105;26;20020;-80
2024/04/17 04:11:02;;;;;;;0.10;0.10;;;8.70;76.70;;;;;;5498434;26;19993;-80
2024/04/17 04:13:28;;;;;;;0.10;0.10;;;8.70;76.90;;;;;;5527741;26;20082;-79
2024/04/17 04:15:54;;;;;;;0.10;0.10;;;8.70;76.90;;;;;;5527938;26;19998;-79
2024/04/17 04:18:20;;;;;;;0.10;0.10;;;8.80;76.90;;;;;;5527777;25;20173;-79
2024/04/17 04:20:46;;;;;;;0.00;0.00;;;8.80;76.90;;;;;;5502991;26;20500;-80
2024/04/17 04:23:12;;;;;;;0.10;0.10;;;8.90;76.70;;;;;;5492810;26;20006;-79
2024/04/17 04:25:38;;;;;;;0.10;0.10;;;8.90;76.50;;;;;;5495228;26;20348;-79
2024/04/17 04:28:03;;;;;;;0.10;0.10;;;8.80;76.60;;;;;;5495542;26;19990;-79
2024/04/17 04:30:29;;;;;;;0.10;0.10;;;8.80;76.60;;;;;;5493113;26;19998;-79
2024/04/17 04:32:55;;;;;;;0.10;0.10;;;8.80;76.50;;;;;;5490858;26;19994;-79
2024/04/17 04:35:21;;;;;;;0.10;0.10;;;8.70;76.80;;;;;;5495166;26;20042;-79
2024/04/17 04:37:46;;;;;;;0.10;0.10;;;8.70;76.50;;;;;;5524335;26;20005;-80
2024/04/17 04:40:12;;;;;;;0.10;0.10;;;8.60;76.50;;;;;;5495132;26;20005;-79
2024/04/17 04:42:37;;;;;;;0.10;0.10;;;8.60;76.50;;;;;;5493939;26;20452;-79
2024/04/17 04:45:03;;;;;;;0.10;0.10;;;8.50;76.70;;;;;;5494955;25;20611;-80
2024/04/17 04:47:29;;;;;;;0.10;0.10;;;8.40;77.00;;;;;;5494537;26;20010;-80
2024/04/17 04:49:55;;;;;;;0.10;0.10;;;8.40;76.80;;;;;;5498722;26;20028;-83
2024/04/17 04:52:20;;;;;;;0.10;0.10;;;8.40;77.00;;;;;;5488766;26;20320;-82
2024/04/17 04:54:46;;;;;;;0.10;0.10;;;8.30;76.80;;;;;;5492630;26;20346;-81
2024/04/17 04:57:12;;;;;;;0.10;0.10;;;8.30;76.90;;;;;;5487954;26;20005;-83
2024/04/17 04:59:37;;;;;;;0.10;0.10;;;8.30;77.00;;;;;;5492649;26;19998;-79
2024/04/17 05:02:03;;;;;;;0.10;0.10;;;8.30;76.90;;;;;;5491393;26;20339;-79
2024/04/17 05:04:29;;;;;;;0.10;0.10;;;8.30;77.10;;;;;;5492526;26;19994;-77
2024/04/17 05:06:54;;;;;;;0.10;0.10;;;8.30;76.90;;;;;;5494673;26;19998;-79
2024/04/17 05:09:21;;;;;;;0.10;0.10;;;8.20;76.80;;;;;;5493620;26;20447;-80
2024/04/17 05:11:47;;;;;;;0.10;0.10;;;8.20;76.80;;;;;;5513874;26;20016;-78
2024/04/17 05:14:13;;;;;;;0.10;0.10;;;8.20;76.80;;;;;;5531020;25;20013;-78
2024/04/17 05:16:38;;;;;;;0.10;0.10;;;8.20;76.90;;;;;;5492309;26;19998;-80
2024/04/17 05:19:04;;;;;;;0.10;0.10;;;8.20;76.90;;;;;;5505716;26;19994;-79
2024/04/17 05:21:30;;;;;;;0.10;0.10;;;8.30;76.70;;;;;;5516658;26;20010;-79
2024/04/17 05:23:55;;;;;;;0.10;0.10;;;8.20;76.60;;;;;;5494880;26;20049;-80
2024/04/17 05:26:21;;;;;;;0.10;0.10;;;8.10;76.60;;;;;;5479551;26;19999;-79
2024/04/17 05:28:46;;;;;;;0.10;0.10;;;8.00;76.80;;;;;;5480363;26;20452;-80
2024/04/17 05:31:12;;;;;;;0.10;0.10;;;8.00;77.00;;;;;;5492707;26;19994;-79
2024/04/17 05:33:38;;;;;;;0.10;0.10;;;8.00;77.30;;;;;;5493774;26;20324;-79
2024/04/17 05:36:03;;;;;;;0.10;0.10;;;8.00;77.20;;;;;;5489643;26;19994;-79
2024/04/17 05:38:29;;;;;;;0.10;0.10;;;8.00;77.00;;;;;;5489926;26;19998;-78
2024/04/17 05:40:55;;;;;;;0.10;0.10;;;8.00;77.00;;;;;;5488672;26;20070;-78
2024/04/17 05:43:20;;;;;;;0.10;0.10;;;8.10;76.90;;;;;;5472083;26;19990;-79
2024/04/17 05:45:46;;;;;;;0.10;0.10;;;8.00;77.00;;;;;;5471345;26;20479;-81
2024/04/17 05:48:12;;;;;;;0.10;0.10;;;8.10;76.90;;;;;;5457128;26;19998;-81
2024/04/17 05:50:40;;;;;;;0.10;0.10;;;8.10;77.10;;;;;;5528715;26;19997;-81
2024/04/17 05:53:05;;;;;;;0.10;0.10;;;8.10;77.00;;;;;;5514112;25;20010;-80
2024/04/17 05:55:33;;;;;;;0.10;0.10;;;8.10;77.00;;;;;;5491668;26;19999;-80
2024/04/17 05:57:59;;;;;;;0.10;0.10;;;8.10;77.10;;;;;;5491585;26;19994;-81
2024/04/17 06:00:25;;;;;;;0.10;0.10;;;8.10;77.20;;;;;;5494068;26;20518;-81
2024/04/17 06:02:50;;;;;;;0.10;0.10;;;8.10;77.10;;;;;;5494148;26;20484;-81
2024/04/17 06:05:16;;;;;;;0.10;0.10;;;8.10;77.40;;;;;;5493032;26;20074;-81
2024/04/17 06:07:41;;;;;;;0.10;0.10;;;8.20;77.10;;;;;;5494066;26;20055;-81
2024/04/17 06:10:07;;;;;;;0.10;0.10;;;8.30;76.90;;;;;;5494236;26;20367;-81
2024/04/17 06:12:33;;;;;;;0.10;0.10;;;8.30;77.10;;;;;;5522173;26;20013;-81
2024/04/17 06:14:58;;;;;;;0.10;0.10;;;8.30;76.90;;;;;;5493914;26;19998;-81
2024/04/17 06:17:25;;;;;;;0.10;0.10;;;8.30;77.00;;;;;;5491490;26;20009;-81
2024/04/17 06:19:51;;;;;;;0.10;0.10;;;8.30;77.20;;;;;;5518006;26;20002;-81
2024/04/17 06:22:16;;;;;;;0.10;0.10;;;8.40;77.10;;;;;;5517624;26;20469;-81
2024/04/17 06:24:42;;;;;;;0.10;0.10;;;8.40;77.00;;;;;;5494013;26;20472;-81
2024/04/17 06:27:08;;;;;;;0.10;0.10;;;8.50;76.90;;;;;;5493928;26;19994;-81
2024/04/17 06:29:34;;;;;;;0.10;0.10;;;8.60;76.90;;;;;;5521518;26;20010;-81
2024/04/17 06:32:00;;;;;;;0.10;0.10;;;8.70;76.70;;;;;;5493899;26;20445;-81
2024/04/17 06:34:25;;;;;;;0.10;0.10;;;8.70;76.70;;;;;;5492619;26;19998;-81
2024/04/17 06:36:51;;;;;;;0.20;0.20;;;8.80;76.60;;;;;;5493921;26;20002;-81
2024/04/17 06:39:16;;;;;;;0.10;0.10;;;8.80;76.50;;;;;;5491287;26;20001;-81
2024/04/17 06:41:42;;;;;;;0.10;0.10;;;8.90;76.40;;;;;;5493810;26;20040;-81
2024/04/17 06:44:08;;;;;;;0.10;0.10;;;8.90;76.20;;;;;;5491659;26;19994;-81
2024/04/17 06:46:33;;;;;;;0.10;0.10;;;9.00;76.10;;;;;;5489977;26;20002;-81
2024/04/17 06:48:59;;;;;;;0.13;0.13;;;9.00;76.10;;;;;;5503834;26;20347;-81
2024/04/17 06:51:24;;;;;;;0.10;0.10;;;9.20;76.00;;;;;;5507825;26;20012;-81
2024/04/17 06:53:50;;;;;;;0.10;0.10;;;9.20;76.20;;;;;;5493662;26;20013;-81
2024/04/17 06:56:16;;;;;;;0.10;0.10;;;9.30;76.00;;;;;;5493942;26;19997;-81
2024/04/17 06:58:41;;;;;;;0.10;0.10;;;9.50;75.70;;;;;;5493442;26;20781;-81
2024/04/17 07:01:07;;;;;;;0.10;0.10;;;9.50;75.40;;;;;;5474948;26;20007;-81
2024/04/17 07:03:32;;;;;;;0.10;0.10;;;9.50;75.30;;;;;;5456790;26;20089;-81
2024/04/17 07:06:04;;;;;;;0.10;0.10;;;9.60;75.40;;;;;;5491030;26;19994;-81
2024/04/17 07:08:30;;;;;;;0.10;0.10;;;9.70;75.50;;;;;;5492479;26;20013;-81
2024/04/17 07:10:56;;;;;;;0.10;0.10;;;9.80;75.10;;;;;;5497017;26;19997;-81
2024/04/17 07:13:21;;;;;;;0.10;0.10;;;9.80;74.90;;;;;;5529935;26;20001;-82
2024/04/17 07:15:47;;;;;;;0.10;0.10;;;10.00;74.80;;;;;;5517052;26;19998;-81
2024/04/17 07:18:13;;;;;;;0.10;0.10;;;10.20;74.30;;;;;;5491193;26;20039;-81
2024/04/17 07:20:39;;;;;;;0.10;0.10;;;10.30;73.80;;;;;;5502106;26;20424;-81
2024/04/17 07:23:04;;;;;;;0.10;0.10;;;10.40;73.60;;;;;;5493145;26;20009;-81
2024/04/17 07:25:30;;;;;;;0.10;0.10;;;10.70;73.30;;;;;;5490908;26;20013;-81
2024/04/17 07:27:55;;;;;;;0.10;0.10;;;10.80;72.80;;;;;;5491407;26;19998;-81
2024/04/17 07:30:21;;;;;;;0.10;0.10;;;11.00;72.50;;;;;;5491344;26;20030;-81
2024/04/17 07:32:48;;;;;;;0.20;0.20;;;11.50;71.20;;;;;;5492188;26;20070;-81
2024/04/17 07:35:14;;;;;;;0.30;0.30;;;12.30;69.60;;;;;;5491025;26;20071;-81
2024/04/17 07:37:39;;;;;;;0.32;0.32;;;12.60;68.00;;;;;;5493026;26;19998;-81
2024/04/17 07:40:06;;;;;;;0.40;0.40;;;13.40;66.40;;;;;;5489943;26;20453;-81
2024/04/17 07:42:31;;;;;;;0.40;0.40;;;15.20;63.00;;;;;;5491067;26;19998;-81
2024/04/17 07:44:57;;;;;;;0.40;0.40;;;16.50;59.40;;;;;;5492713;26;20013;-82
2024/04/17 07:47:23;;;;;;;0.10;0.10;;;17.20;54.90;;;;;;5491657;26;20031;-82
2024/04/17 07:49:50;;;;;;;0.22;0.22;;;17.40;54.40;;;;;;5514259;26;20009;-82
2024/04/17 07:52:16;;;;;;;0.60;0.60;;;18.60;51.30;;;;;;5526445;25;20008;-82
2024/04/17 07:54:41;;;;;;;0.60;0.60;;;20.80;47.40;;;;;;5455497;26;19999;-82
2024/04/17 07:57:07;;;;;;;0.60;0.60;;;22.10;44.70;;;;;;5475551;26;20313;-82
2024/04/17 07:59:33;;;;;;;0.60;0.60;;;23.10;41.30;;;;;;5495571;26;20096;-81
2024/04/17 08:01:58;;;;;;;0.50;0.50;;;24.40;38.50;;;;;;5494204;25;20336;-81
2024/04/17 08:04:24;;;;;;;0.60;0.60;;;23.80;37.40;;;;;;5496203;26;19998;-81
2024/04/17 08:06:50;;;;;;;0.70;0.70;;;24.10;35.80;;;;;;5495749;26;20026;-81
2024/04/17 08:09:15;;;;;;;0.70;0.70;;;25.30;35.90;;;;;;5494986;26;20010;-81
2024/04/17 08:11:41;;;;;;;0.70;0.70;;;26.30;34.50;;;;;;5513478;26;20008;-81
2024/04/17 08:14:06;;;;;;;0.75;0.75;;;26.90;32.40;;;;;;5532787;26;20009;-80
2024/04/17 08:16:32;;;;;;;0.60;0.60;;;27.00;32.30;;;;;;5520774;26;20006;-80
2024/04/17 08:18:57;;;;;;;0.38;0.38;;;27.30;32.40;;;;;;5505572;26;20008;-81
2024/04/17 08:21:23;;;;;;;0.70;0.70;;;26.60;32.50;;;;;;5508622;26;20459;-81
2024/04/17 08:23:49;;;;;;;1.10;1.10;;;26.60;32.70;;;;;;5495695;26;20002;-81
2024/04/17 08:26:14;;;;;;;0.70;0.70;;;26.80;32.30;;;;;;5524668;26;19994;-81
2024/04/17 08:28:40;;;;;;;1.42;1.35;;;27.90;31.90;;;;;;5495046;26;20594;-81
2024/04/17 08:31:06;;;;;;;0.80;0.80;;;28.40;30.10;;;;;;5494617;26;20002;-81
2024/04/17 08:33:32;;;;;;;1.20;1.20;;;29.20;29.40;;;;;;5495692;26;19998;-80
2024/04/17 08:35:57;;;;;;;0.77;0.77;;;29.30;29.10;;;;;;5495388;26;20103;-80
2024/04/17 08:38:23;;;;;;;0.30;0.30;;;27.80;30.10;;;;;;5491397;26;19998;-80
2024/04/17 08:40:51;;;;;;;0.60;0.60;;;27.70;30.50;;;;;;5493867;26;20078;-80
2024/04/17 08:43:24;;;;;;;0.10;0.10;;;27.30;30.70;;;;;;5493811;26;20083;-80
2024/04/17 08:45:54;;;;;;;0.70;0.70;;;25.60;32.10;;;;;;5493824;26;20017;-80
2024/04/17 08:48:21;;;;;;;0.70;0.70;;;25.60;32.30;;;;;;5495920;26;20038;-80
2024/04/17 08:50:47;;;;;;;0.70;0.70;;;26.70;31.50;;;;;;5500692;26;20066;-81
2024/04/17 08:53:18;;;;;;;0.80;0.80;;;26.80;29.80;;;;;;5476905;26;20007;-80
2024/04/17 08:55:44;;;;;;;0.80;0.80;;;27.50;30.30;;;;;;5458296;26;20017;-80
2024/04/17 08:58:10;;;;;;;0.70;0.70;;;27.90;29.90;;;;;;5492378;26;19994;-81
2024/04/17 09:00:38;;;;;;;0.30;0.30;;;27.80;29.30;;;;;;5494905;26;20005;-80
2024/04/17 09:03:08;;;;;;;0.10;0.10;;;27.20;30.10;;;;;;5493331;26;20013;-81
2024/04/17 09:05:34;;;;;;;0.10;0.10;;;26.90;30.00;;;;;;5493210;26;19994;-80
2024/04/17 09:08:00;;;;;;;0.80;0.80;;;25.30;31.70;;;;;;5492673;26;20078;-80
2024/04/17 09:10:27;;;;;;;0.75;0.75;;;24.80;33.10;;;;;;5495303;25;20002;-80
2024/04/17 09:12:53;;;;;;;0.00;0.00;;;25.30;33.50;;;;;;5508838;26;19997;-80
2024/04/17 09:15:20;;;;;;;0.00;0.00;;;24.20;33.90;;;;;;5494879;26;20074;-80
2024/04/17 09:17:48;;;;;;;0.60;0.60;;;23.30;34.70;;;;;;5494523;26;20002;-81
2024/04/17 09:20:14;;;;;;;0.00;0.00;;;23.50;35.90;;;;;;5519995;26;19998;-81
2024/04/17 09:22:40;;;;;;;0.30;0.30;;;22.60;36.40;;;;;;5494624;26;19994;-81
2024/04/17 09:25:16;;;;;;;0.88;0.88;;;22.50;37.40;;;;;;5493407;26;20013;-81
2024/04/17 09:27:42;;;;;;;0.80;0.80;;;23.00;34.40;;;;;;5493032;26;20029;-80
2024/04/17 09:30:08;;;;;;;0.70;0.70;;;23.50;33.90;;;;;;5493609;26;20010;-81
2024/04/17 09:32:33;;;;;;;0.80;0.80;;;23.80;33.50;;;;;;5494344;26;19994;-81
2024/04/17 09:35:00;;;;;;;0.80;0.80;;;24.80;32.00;;;;;;5494452;26;20009;-81
2024/04/17 09:37:26;;;;;;;0.80;0.80;;;25.30;32.70;;;;;;5493667;26;20432;-81
2024/04/17 09:40:06;;;;;;;0.80;0.80;;;26.00;30.40;;;;;;5494624;26;20017;-81
2024/04/17 09:42:34;;;;;;;0.68;0.68;;;26.50;29.90;;;;;;5493355;26;19990;-80
2024/04/17 09:45:01;;;;;;;0.90;0.90;;;26.80;29.70;;;;;;5461733;26;20021;-81
2024/04/17 09:47:28;;;;;;;0.90;0.90;;;26.70;30.70;;;;;;5481763;26;20006;-81
2024/04/17 09:49:56;;;;;;;0.00;0.00;;;27.10;29.50;;;;;;5519471;26;20029;-81
2024/04/17 09:52:22;;;;;;;0.10;0.10;;;26.30;30.30;;;;;;5525399;26;20079;-81
2024/04/17 09:54:49;;;;;;;0.10;0.10;;;24.90;30.60;;;;;;5492765;26;20448;-80
2024/04/17 09:57:16;;;;;;;0.10;0.10;;;23.80;31.70;;;;;;5492780;26;20002;-79
2024/04/17 09:59:42;;;;;;;0.00;0.00;;;23.50;33.20;;;;;;5493811;26;20026;-79
2024/04/17 10:02:13;;;;;;;0.00;0.00;;;22.40;34.20;;;;;;5492113;26;20002;-79
2024/04/17 10:04:39;;;;;;;0.00;0.00;;;21.70;35.80;;;;;;5492223;26;20002;-79
2024/04/17 10:07:07;;;;;;;0.00;0.00;;;21.20;36.10;;;;;;5492605;26;19998;-79
2024/04/17 10:09:34;;;;;;;0.00;0.00;;;20.60;36.80;;;;;;5492059;26;20047;-78
2024/04/17 10:12:00;;;;;;;0.00;0.00;;;19.90;37.80;;;;;;5516271;26;20008;-79
2024/04/17 10:14:28;;;;;;;0.00;0.00;;;19.70;39.40;;;;;;5529165;26;19998;-79
2024/04/17 10:16:54;;;;;;;0.00;0.00;;;19.70;39.60;;;;;;5526285;25;20008;-79
2024/04/17 10:19:20;;;;;;;0.10;0.10;;;19.60;39.10;;;;;;5509730;26;20001;-79
2024/04/17 10:21:46;;;;;;;0.10;0.10;;;19.40;39.10;;;;;;5523980;26;20058;-80
2024/04/17 10:24:12;;;;;;;0.10;0.10;;;19.40;38.40;;;;;;5492208;26;19994;-80
2024/04/17 10:26:42;;;;;;;0.00;0.00;;;19.60;39.30;;;;;;5493977;26;19997;-80
2024/04/17 10:29:18;;;;;;;0.00;0.00;;;19.30;38.90;;;;;;5494428;26;20003;-80
2024/04/17 10:31:56;;;;;;;0.00;0.00;;;18.70;40.60;;;;;;5515798;26;20092;-80
2024/04/17 10:34:42;;;;;;;0.00;0.00;;;18.40;42.00;;;;;;5455534;26;20010;-80
2024/04/17 10:37:09;;;;;;;0.00;0.00;;;18.10;42.40;;;;;;5455055;26;19999;-80
2024/04/17 10:39:39;;;;;;;0.00;0.00;;;17.80;43.30;;;;;;5489489;26;20002;-80
2024/04/17 10:42:06;;;;;;;0.00;0.00;;;17.50;44.40;;;;;;5492600;26;20014;-80
2024/04/17 10:44:44;;;;;;;0.00;0.00;;;17.30;45.10;;;;;;5485906;26;19998;-80
2024/04/17 10:47:21;;;;;;;0.00;0.00;;;17.20;45.50;;;;;;5488419;26;20002;-80
2024/04/17 10:49:57;;;;;;;0.08;0.08;;;16.80;46.70;;;;;;5514692;26;20439;-80
2024/04/17 10:52:24;;;;;;;0.10;0.10;;;16.20;50.20;;;;;;5524407;25;20038;-80
2024/04/17 10:54:53;;;;;;;0.00;0.00;;;15.90;51.00;;;;;;5493621;26;20010;-80
2024/04/17 10:57:19;;;;;;;0.10;0.10;;;15.80;50.90;;;;;;5492814;26;20033;-81
2024/04/17 10:59:51;;;;;;;0.03;0.03;;;16.00;50.80;;;;;;5493409;26;20013;-80
2024/04/17 11:02:17;;;;;;;0.10;0.10;;;16.30;50.30;;;;;;5480162;26;19995;-80
2024/04/17 11:04:43;;;;;;;0.10;0.10;;;16.50;49.50;;;;;;5456816;26;19995;-80
2024/04/17 11:07:09;;;;;;;0.15;0.15;;;16.60;49.50;;;;;;5479464;26;20002;-80
2024/04/17 11:09:35;;;;;;;0.10;0.10;;;16.90;49.30;;;;;;5491518;26;20017;-80
2024/04/17 11:12:01;;;;;;;0.10;0.10;;;16.80;48.30;;;;;;5484739;26;20018;-80
2024/04/17 11:14:26;;;;;;;0.10;0.10;;;16.80;50.00;;;;;;5485706;26;20002;-80
2024/04/17 11:16:52;;;;;;;0.10;0.10;;;16.70;49.80;;;;;;5492957;26;20073;-80
2024/04/17 11:19:18;;;;;;;0.10;0.10;;;16.80;49.80;;;;;;5508503;26;20458;-80
2024/04/17 11:21:44;;;;;;;0.10;0.10;;;16.90;49.80;;;;;;5480486;25;20424;-80
2024/04/17 11:24:20;;;;;;;0.10;0.10;;;17.20;48.50;;;;;;5522311;26;20074;-80
2024/04/17 11:26:45;;;;;;;0.10;0.10;;;17.00;48.90;;;;;;5489237;26;20077;-80
2024/04/17 11:29:15;;;;;;;0.10;0.10;;;17.00;49.90;;;;;;5492793;26;20002;-80
2024/04/17 11:31:43;;;;;;;0.10;0.10;;;17.00;50.10;;;;;;5489624;26;20010;-80
2024/04/17 11:34:20;;;;;;;0.10;0.10;;;17.10;50.90;;;;;;5490691;26;19994;-80
2024/04/17 11:36:49;;;;;;;0.10;0.10;;;17.00;49.30;;;;;;5492625;26;20055;-80
2024/04/17 11:39:16;;;;;;;0.10;0.10;;;17.20;50.70;;;;;;5490896;26;20051;-80
2024/04/17 11:41:41;;;;;;;0.00;0.00;;;17.20;50.80;;;;;;5491472;26;20018;-76
2024/04/17 11:44:10;;;;;;;0.08;0.08;;;17.20;48.90;;;;;;5476941;26;20076;-82
2024/04/17 11:46:39;;;;;;;0.10;0.10;;;17.40;49.00;;;;;;5471168;26;20074;-82
2024/04/17 11:49:07;;;;;;;0.10;0.10;;;17.50;49.40;;;;;;5465796;26;20026;-83
2024/04/17 11:51:33;;;;;;;0.10;0.10;;;17.70;48.70;;;;;;5473011;26;20334;-83
2024/04/17 11:54:01;;;;;;;0.03;0.03;;;17.80;48.30;;;;;;5475710;26;19999;-83
2024/04/17 11:56:27;;;;;;;0.10;0.10;;;17.70;48.90;;;;;;5479580;26;20010;-83
2024/04/17 11:58:55;;;;;;;0.10;0.10;;;17.60;49.50;;;;;;5476797;26;19998;-83
2024/04/17 12:01:21;;;;;;;0.00;0.00;;;17.60;49.30;;;;;;5469985;26;20032;-83
2024/04/17 12:03:47;;;;;;;0.00;0.00;;;17.20;49.50;;;;;;5474242;26;20006;-82
2024/04/17 12:06:12;;;;;;;0.00;0.00;;;16.80;49.20;;;;;;5470144;26;20005;-83
2024/04/17 12:08:38;;;;;;;0.10;0.10;;;16.80;48.30;;;;;;5473486;26;20005;-83
2024/04/17 12:11:04;;;;;;;0.10;0.10;;;16.90;48.80;;;;;;5476566;26;20002;-83
2024/04/17 12:13:29;;;;;;;0.00;0.00;;;16.90;48.70;;;;;;5473052;26;19998;-84
2024/04/17 12:15:55;;;;;;;0.10;0.10;;;16.80;48.20;;;;;;5470761;26;20003;-83
2024/04/17 12:18:21;;;;;;;0.10;0.10;;;16.40;46.90;;;;;;5477749;26;19994;-82
2024/04/17 12:20:46;;;;;;;0.10;0.10;;;16.50;47.70;;;;;;5475601;26;20026;-82
2024/04/17 12:23:18;;;;;;;0.10;0.10;;;16.50;48.10;;;;;;5456681;26;20064;-82
2024/04/17 12:28:30;;;;;;;0.10;0.10;;;16.50;45.80;;;;;;5486705;26;20001;-83
2024/04/17 12:30:55;;;;;;;0.10;0.10;;;16.60;45.50;;;;;;5487701;26;19994;-83
2024/04/17 12:33:21;;;;;;;0.10;0.10;;;16.80;46.40;;;;;;5461086;26;19999;-83
2024/04/17 12:35:47;;;;;;;0.00;0.00;;;16.90;45.50;;;;;;5476642;26;19994;-82
2024/04/17 12:38:13;;;;;;;0.05;0.05;;;16.90;43.90;;;;;;5476003;26;20013;-83
2024/04/17 12:40:39;;;;;;;0.10;0.10;;;16.70;44.60;;;;;;5465641;26;20082;-82
2024/04/17 12:43:06;;;;;;;0.00;0.00;;;16.40;44.70;;;;;;5478292;26;19994;-83
2024/04/17 12:45:32;;;;;;;0.10;0.10;;;16.30;45.20;;;;;;5469229;26;19995;-82
2024/04/17 12:47:59;;;;;;;0.00;0.00;;;16.40;46.00;;;;;;5468828;26;20936;-84
2024/04/17 12:50:24;;;;;;;0.10;0.10;;;16.30;45.50;;;;;;5477027;26;20042;-83